createdAt,value
2018-08-10T00:00:14.773Z,0.20
2018-08-10T00:02:42.953Z,0.20
2018-08-10T00:05:11.257Z,0.20
2018-08-10T00:07:39.601Z,0.20
2018-08-10T00:10:09.473Z,0.20
2018-08-10T00:12:37.636Z,0.10
2018-08-10T00:15:06.566Z,0.20
2018-08-10T00:17:35.262Z,0.30
2018-08-10T00:20:04.531Z,0.10
2018-08-10T00:22:32.635Z,0.10
2018-08-10T00:25:00.822Z,0.20
2018-08-10T00:27:29.001Z,0.20
2018-08-10T00:29:57.196Z,0.10
2018-08-10T00:32:25.507Z,0.10
2018-08-10T00:34:53.679Z,0.10
2018-08-10T00:37:21.857Z,0.20
2018-08-10T00:39:50.050Z,0.25
2018-08-10T00:42:18.251Z,0.10
2018-08-10T00:44:46.421Z,0.20
2018-08-10T00:47:14.594Z,0.10
2018-08-10T00:49:42.690Z,0.13
2018-08-10T00:52:10.870Z,0.10
2018-08-10T00:54:39.065Z,0.20
2018-08-10T00:57:07.251Z,0.20
2018-08-10T00:59:35.433Z,0.10
2018-08-10T01:02:03.718Z,0.13
2018-08-10T01:04:31.978Z,0.20
2018-08-10T01:07:00.095Z,0.17
2018-08-10T01:09:28.305Z,0.10
2018-08-10T01:11:56.461Z,0.10
2018-08-10T01:14:24.553Z,0.10
2018-08-10T01:16:52.726Z,0.10
2018-08-10T01:19:20.868Z,0.13
2018-08-10T01:21:48.925Z,0.10
2018-08-10T01:24:17.086Z,0.10
2018-08-10T01:26:45.191Z,0.10
2018-08-10T01:29:13.353Z,0.25
2018-08-10T01:31:41.454Z,0.10
2018-08-10T01:34:09.633Z,0.10
2018-08-10T01:36:37.720Z,0.20
2018-08-10T01:39:08.030Z,0.30
2018-08-10T01:41:36.171Z,0.10
2018-08-10T01:44:04.646Z,0.20
2018-08-10T01:46:33.278Z,0.10
2018-08-10T01:49:01.419Z,0.17
2018-08-10T01:51:29.507Z,0.10
2018-08-10T01:53:57.689Z,0.20
2018-08-10T01:56:25.769Z,0.10
2018-08-10T01:58:54.124Z,0.10
2018-08-10T02:01:22.254Z,0.10
2018-08-10T02:03:50.429Z,0.10
2018-08-10T02:06:18.521Z,0.20
2018-08-10T02:08:46.708Z,0.13
2018-08-10T02:11:14.898Z,0.10
2018-08-10T02:13:43.073Z,0.17
2018-08-10T02:16:11.170Z,0.10
2018-08-10T02:18:39.354Z,0.20
2018-08-10T02:21:07.572Z,0.10
2018-08-10T02:23:35.721Z,0.20
2018-08-10T02:26:03.817Z,0.13
2018-08-10T02:28:31.990Z,0.30
2018-08-10T02:31:00.093Z,0.13
2018-08-10T02:33:28.281Z,0.28
2018-08-10T02:35:56.465Z,0.20
2018-08-10T02:38:24.651Z,0.20
2018-08-10T02:40:52.829Z,0.13
2018-08-10T02:43:21.012Z,0.20
2018-08-10T02:45:49.097Z,0.33
2018-08-10T02:48:17.195Z,0.25
2018-08-10T02:50:45.382Z,0.30
2018-08-10T02:53:13.563Z,0.20
2018-08-10T02:55:41.745Z,0.30
2018-08-10T02:58:09.936Z,0.33
2018-08-10T03:00:38.058Z,0.25
2018-08-10T03:03:06.218Z,0.23
2018-08-10T03:05:34.394Z,0.20
2018-08-10T03:08:02.482Z,0.20
2018-08-10T03:10:30.697Z,0.37
2018-08-10T03:12:58.859Z,0.30
2018-08-10T03:15:26.934Z,0.40
2018-08-10T03:17:55.015Z,0.40
2018-08-10T03:20:23.418Z,0.20
2018-08-10T03:22:51.594Z,0.30
2018-08-10T03:25:19.690Z,0.20
2018-08-10T03:27:47.888Z,0.30
2018-08-10T03:30:16.069Z,0.20
2018-08-10T03:32:44.261Z,0.23
2018-08-10T03:35:12.427Z,0.20
2018-08-10T03:37:40.519Z,0.13
2018-08-10T03:40:10.893Z,0.20
2018-08-10T03:42:39.037Z,0.30
2018-08-10T03:45:07.665Z,0.30
2018-08-10T03:47:35.874Z,0.20
2018-08-10T03:50:05.014Z,0.30
2018-08-10T03:52:33.119Z,0.40
2018-08-10T03:55:01.298Z,0.47
2018-08-10T03:57:29.386Z,0.30
2018-08-10T03:59:57.580Z,0.30
2018-08-10T04:02:25.789Z,0.50
2018-08-10T04:04:53.949Z,0.30
2018-08-10T04:07:22.344Z,0.40
2018-08-10T04:09:50.445Z,0.30
2018-08-10T04:12:19.136Z,0.30
2018-08-10T04:14:47.237Z,0.33
2018-08-10T04:17:20.825Z,0.40
2018-08-10T04:19:49.031Z,0.20
2018-08-10T04:22:17.230Z,0.47
2018-08-10T04:24:45.410Z,0.30
2018-08-10T04:27:13.597Z,0.30
2018-08-10T04:29:42.077Z,0.20
2018-08-10T04:32:10.290Z,0.30
2018-08-10T04:34:38.462Z,0.25
2018-08-10T04:37:06.985Z,0.30
2018-08-10T04:39:35.197Z,0.28
2018-08-10T04:42:03.333Z,0.20
2018-08-10T04:44:31.515Z,0.40
2018-08-10T04:46:59.752Z,0.30
2018-08-10T04:49:28.002Z,0.20
2018-08-10T04:51:56.106Z,0.30
2018-08-10T04:54:24.265Z,0.35
2018-08-10T04:56:52.471Z,0.40
2018-08-10T04:59:20.629Z,0.50
2018-08-10T05:01:48.829Z,0.45
2018-08-10T05:04:16.925Z,0.40
2018-08-10T05:06:45.107Z,0.30
2018-08-10T05:09:13.701Z,0.40
2018-08-10T05:11:42.816Z,0.30
2018-08-10T05:14:11.201Z,0.30
2018-08-10T05:16:39.562Z,0.33
2018-08-10T05:19:07.774Z,0.30
2018-08-10T05:21:36.181Z,0.40
2018-08-10T05:24:04.394Z,0.30
2018-08-10T05:26:32.544Z,0.20
2018-08-10T05:29:00.719Z,0.30
2018-08-10T05:31:28.934Z,0.50
2018-08-10T05:33:57.204Z,0.30
2018-08-10T05:36:25.397Z,0.40
2018-08-10T05:38:53.578Z,0.40
2018-08-10T05:41:21.770Z,0.40
2018-08-10T05:43:49.954Z,0.30
2018-08-10T05:46:18.162Z,0.40
2018-08-10T05:48:46.326Z,0.30
2018-08-10T05:51:15.232Z,0.30
2018-08-10T05:53:43.432Z,0.37
2018-08-10T05:56:12.133Z,0.30
2018-08-10T05:58:40.233Z,0.50
2018-08-10T06:01:08.393Z,0.55
2018-08-10T06:03:36.659Z,0.30
2018-08-10T06:06:04.844Z,0.50
2018-08-10T06:08:32.962Z,0.37
2018-08-10T06:11:01.107Z,0.40
2018-08-10T06:13:29.190Z,0.30
2018-08-10T06:15:57.378Z,0.50
2018-08-10T06:18:25.457Z,0.50
2018-08-10T06:20:53.642Z,0.40
2018-08-10T06:23:21.753Z,0.45
2018-08-10T06:25:49.926Z,0.40
2018-08-10T06:28:18.132Z,0.40
2018-08-10T06:30:46.318Z,0.53
2018-08-10T06:33:14.521Z,0.42
2018-08-10T06:35:42.702Z,0.30
2018-08-10T06:38:10.880Z,0.50
2018-08-10T06:40:39.061Z,0.30
2018-08-10T06:43:07.274Z,0.40
2018-08-10T06:45:35.421Z,0.50
2018-08-10T06:48:03.858Z,0.40
2018-08-10T06:50:32.025Z,0.45
2018-08-10T06:53:00.114Z,0.60
2018-08-10T06:55:28.262Z,0.50
2018-08-10T06:57:56.369Z,0.40
2018-08-10T07:00:24.479Z,0.50
2018-08-10T07:02:52.626Z,0.75
2018-08-10T07:05:20.819Z,0.70
2018-08-10T07:07:49.019Z,0.40
2018-08-10T07:10:17.188Z,0.50
2018-08-10T07:12:45.413Z,0.50
2018-08-10T07:15:13.553Z,0.50
2018-08-10T07:17:41.770Z,0.50
2018-08-10T07:20:09.932Z,0.60
2018-08-10T07:22:38.128Z,0.37
2018-08-10T07:25:06.334Z,0.80
2018-08-10T07:27:34.743Z,0.60
2018-08-10T07:30:02.938Z,0.50
2018-08-10T07:32:31.087Z,0.40
2018-08-10T07:34:59.253Z,0.55
2018-08-10T07:37:27.459Z,0.70
2018-08-10T07:39:55.639Z,0.50
2018-08-10T07:42:23.823Z,0.70
2018-08-10T07:44:51.994Z,0.60
2018-08-10T07:47:20.109Z,0.75
2018-08-10T07:49:48.269Z,0.72
2018-08-10T07:52:16.453Z,0.70
2018-08-10T07:54:44.589Z,0.60
2018-08-10T07:57:12.729Z,0.60
2018-08-10T07:59:40.933Z,0.68
2018-08-10T08:02:09.112Z,0.42
2018-08-10T08:04:37.299Z,0.80
2018-08-10T08:07:05.555Z,0.50
2018-08-10T08:09:33.729Z,0.47
2018-08-10T08:12:01.897Z,0.65
2018-08-10T08:14:30.079Z,0.60
2018-08-10T08:16:58.253Z,0.60
2018-08-10T08:19:26.459Z,0.30
2018-08-10T08:22:10.819Z,0.60
2018-08-10T08:24:40.136Z,0.30
2018-08-10T08:27:08.818Z,0.45
2018-08-10T08:29:37.333Z,0.50
2018-08-10T08:32:05.729Z,0.70
2018-08-10T08:34:34.077Z,0.70
2018-08-10T08:37:03.285Z,0.42
2018-08-10T08:40:44.529Z,0.40
2018-08-10T08:43:12.922Z,0.72
2018-08-10T08:46:09.510Z,0.60
2018-08-10T08:48:41.595Z,0.80
2018-08-10T08:51:12.161Z,0.50
2018-08-10T08:53:40.385Z,0.60
2018-08-10T08:56:10.089Z,0.70
2018-08-10T08:58:39.010Z,0.50
2018-08-10T09:01:08.066Z,0.70
2018-08-10T09:03:47.870Z,0.78
2018-08-10T09:06:16.088Z,0.60
2018-08-10T09:09:48.917Z,0.60
2018-08-10T09:12:17.354Z,0.98
2018-08-10T09:14:50.158Z,0.85
2018-08-10T09:17:18.410Z,0.53
2018-08-10T09:19:46.538Z,0.75
2018-08-10T09:22:14.715Z,0.75
2018-08-10T09:24:43.214Z,0.70
2018-08-10T09:27:11.602Z,0.60
2018-08-10T09:29:39.823Z,0.62
2018-08-10T09:32:07.985Z,0.70
2018-08-10T09:34:36.199Z,0.85
2018-08-10T09:37:04.673Z,0.50
2018-08-10T09:39:32.870Z,0.70
2018-08-10T09:42:02.392Z,0.68
2018-08-10T09:44:31.067Z,0.80
2018-08-10T09:46:59.441Z,0.60
2018-08-10T09:49:39.120Z,0.70
2018-08-10T09:52:07.327Z,0.70
2018-08-10T09:55:27.482Z,0.70
2018-08-10T09:57:57.138Z,0.50
2018-08-10T10:00:30.749Z,0.55
2018-08-10T10:03:30.023Z,0.65
2018-08-10T10:05:59.682Z,0.60
2018-08-10T10:08:27.854Z,0.60
2018-08-10T10:10:56.058Z,0.70
2018-08-10T10:13:24.217Z,0.70
2018-08-10T10:15:52.381Z,0.60
2018-08-10T10:18:20.486Z,0.78
2018-08-10T10:20:49.010Z,0.62
2018-08-10T10:23:17.165Z,0.60
2018-08-10T10:25:45.368Z,0.75
2018-08-10T10:28:13.534Z,0.68
2018-08-10T10:30:41.721Z,0.98
2018-08-10T10:33:09.911Z,0.75
2018-08-10T10:35:37.994Z,0.50
2018-08-10T10:38:06.242Z,0.80
2018-08-10T10:40:34.393Z,0.75
2018-08-10T10:43:02.559Z,0.70
2018-08-10T10:45:30.737Z,0.70
2018-08-10T10:47:58.824Z,0.60
2018-08-10T10:50:27.005Z,0.47
2018-08-10T10:52:55.081Z,0.50
2018-08-10T10:55:23.208Z,0.68
2018-08-10T10:57:51.371Z,0.65
2018-08-10T11:00:20.518Z,0.60
2018-08-10T11:02:49.102Z,0.47
2018-08-10T11:05:17.605Z,0.55
2018-08-10T11:07:45.790Z,0.75
2018-08-10T11:10:15.301Z,0.72
2018-08-10T11:12:43.450Z,0.65
2018-08-10T11:15:12.257Z,0.62
2018-08-10T11:17:40.358Z,0.62
2018-08-10T11:20:09.898Z,0.80
2018-08-10T11:22:38.794Z,0.60
2018-08-10T11:25:07.760Z,0.57
2018-08-10T11:27:35.868Z,0.62
2018-08-10T11:30:05.371Z,0.45
2018-08-10T11:32:33.453Z,0.80
2018-08-10T11:35:01.647Z,0.70
2018-08-10T11:37:29.834Z,0.65
2018-08-10T11:39:58.034Z,0.57
2018-08-10T11:42:26.122Z,0.72
2018-08-10T11:44:54.365Z,0.80
2018-08-10T11:47:22.470Z,0.57
2018-08-10T11:49:50.582Z,0.50
2018-08-10T11:52:18.746Z,0.80
2018-08-10T11:54:46.950Z,0.70
2018-08-10T11:57:15.157Z,0.75
2018-08-10T11:59:43.234Z,0.60
2018-08-10T12:02:11.398Z,0.50
2018-08-10T12:04:39.598Z,0.60
2018-08-10T12:07:07.788Z,0.60
2018-08-10T12:09:35.993Z,1.02
2018-08-10T12:12:04.184Z,0.85
2018-08-10T12:14:32.369Z,0.72
2018-08-10T12:17:00.542Z,0.80
2018-08-10T12:19:28.752Z,0.62
2018-08-10T12:21:56.898Z,0.68
2018-08-10T12:24:25.104Z,0.60
2018-08-10T12:26:53.326Z,0.53
2018-08-10T12:29:21.470Z,0.57
2018-08-10T12:31:49.653Z,0.60
2018-08-10T12:34:17.876Z,0.70
2018-08-10T12:36:45.994Z,0.57
2018-08-10T12:39:14.552Z,0.57
2018-08-10T12:41:42.722Z,0.70
2018-08-10T12:44:11.071Z,0.50
2018-08-10T12:46:39.291Z,0.60
2018-08-10T12:49:07.417Z,0.50
2018-08-10T12:51:35.606Z,0.47
2018-08-10T12:54:04.031Z,0.60
2018-08-10T12:59:15.074Z,0.50
2018-08-10T13:01:43.289Z,0.50
2018-08-10T13:04:11.449Z,0.50
2018-08-10T13:06:39.563Z,0.45
2018-08-10T13:09:09.575Z,0.40
2018-08-10T13:11:37.767Z,0.40
2018-08-10T13:14:06.023Z,0.53
2018-08-10T13:16:34.147Z,0.42
2018-08-10T13:19:02.313Z,0.40
2018-08-10T13:21:30.505Z,0.20
2018-08-10T13:23:58.757Z,0.40
2018-08-10T13:26:26.918Z,0.50
2018-08-10T13:28:55.062Z,0.50
2018-08-10T13:31:23.254Z,0.45
2018-08-10T13:33:51.431Z,0.55
2018-08-10T13:36:19.630Z,0.50
2018-08-10T13:38:47.793Z,0.40
2018-08-10T13:41:15.991Z,0.40
2018-08-10T13:43:44.329Z,0.60
2018-08-10T13:46:12.508Z,0.40
2018-08-10T13:48:40.597Z,0.50
2018-08-10T13:51:08.992Z,0.40
2018-08-10T13:53:37.174Z,0.40
2018-08-10T13:56:05.328Z,0.30
2018-08-10T13:58:33.582Z,0.40
2018-08-10T14:01:01.691Z,0.40
2018-08-10T14:03:29.882Z,0.40
2018-08-10T14:05:58.106Z,0.50
2018-08-10T14:08:26.254Z,0.40
2018-08-10T14:10:54.414Z,0.35
2018-08-10T14:13:22.605Z,2.02
2018-08-10T14:15:50.815Z,1.25
2018-08-10T14:18:18.881Z,0.30
2018-08-10T14:20:47.069Z,0.60
2018-08-10T14:23:15.247Z,0.57
2018-08-10T14:25:43.365Z,0.40
2018-08-10T14:28:11.570Z,0.40
2018-08-10T14:30:39.718Z,0.40
2018-08-10T14:33:07.913Z,0.30
2018-08-10T14:36:04.210Z,0.40
2018-08-10T14:38:32.321Z,0.57
2018-08-10T14:41:00.516Z,0.57
2018-08-10T14:43:28.697Z,0.50
2018-08-10T14:45:56.908Z,0.50
2018-08-10T14:48:25.200Z,0.50
2018-08-10T14:50:53.404Z,0.40
2018-08-10T14:53:21.609Z,0.40
2018-08-10T14:55:49.798Z,0.40
2018-08-10T14:58:17.919Z,0.30
2018-08-10T15:00:46.282Z,0.40
2018-08-10T15:03:14.306Z,0.37
2018-08-10T15:05:42.494Z,0.37
2018-08-10T15:08:10.698Z,0.33
2018-08-10T15:10:38.901Z,0.40
2018-08-10T15:13:07.188Z,0.50
2018-08-10T15:15:35.258Z,0.20
2018-08-10T15:18:03.449Z,0.40
2018-08-10T15:20:31.637Z,0.53
2018-08-10T15:22:59.814Z,0.40
2018-08-10T15:25:27.995Z,0.40
2018-08-10T15:27:56.198Z,0.33
2018-08-10T15:30:24.369Z,0.30
2018-08-10T15:32:52.593Z,0.33
2018-08-10T15:35:20.698Z,0.30
2018-08-10T15:37:48.845Z,0.40
2018-08-10T15:40:18.292Z,0.30
2018-08-10T15:42:46.447Z,0.50
2018-08-10T15:45:15.753Z,0.40
2018-08-10T15:47:44.559Z,0.40
2018-08-10T15:50:12.882Z,0.40
2018-08-10T15:52:42.366Z,0.40
2018-08-10T15:55:10.914Z,0.55
2018-08-10T15:57:39.870Z,0.35
2018-08-10T16:00:19.088Z,0.65
2018-08-10T16:02:47.560Z,0.40
2018-08-10T16:05:15.698Z,0.50
2018-08-10T16:07:44.410Z,0.50
2018-08-10T16:10:12.734Z,0.40
2018-08-10T16:12:40.869Z,0.42
2018-08-10T16:15:12.218Z,0.40
2018-08-10T16:17:40.529Z,0.28
2018-08-10T16:20:11.270Z,0.40
2018-08-10T16:22:39.665Z,0.40
2018-08-10T16:25:09.375Z,0.40
2018-08-10T16:27:37.582Z,1.55
2018-08-10T16:30:07.615Z,0.55
2018-08-10T16:32:35.797Z,0.50
2018-08-10T16:35:04.438Z,0.40
2018-08-10T16:37:32.590Z,0.50
2018-08-10T16:40:00.750Z,0.45
2018-08-10T16:42:30.000Z,0.50
2018-08-10T16:44:58.179Z,0.70
2018-08-10T16:47:26.368Z,0.40
2018-08-10T16:49:54.513Z,0.55
2018-08-10T16:52:22.712Z,0.37
2018-08-10T16:54:50.930Z,0.30
2018-08-10T16:57:19.086Z,0.30
2018-08-10T16:59:47.270Z,0.35
2018-08-10T17:02:15.402Z,0.33
2018-08-10T17:04:43.530Z,0.50
2018-08-10T17:07:11.789Z,0.40
2018-08-10T17:09:39.933Z,0.23
2018-08-10T17:12:08.720Z,0.40
2018-08-10T17:14:36.895Z,0.33
2018-08-10T17:17:05.113Z,0.65
2018-08-10T17:19:33.487Z,0.40
2018-08-10T17:22:01.663Z,0.30
2018-08-10T17:24:29.861Z,0.40
2018-08-10T17:26:58.067Z,0.30
2018-08-10T17:29:26.238Z,0.30
2018-08-10T17:31:54.451Z,0.40
2018-08-10T17:34:22.918Z,0.28
2018-08-10T17:36:51.089Z,0.30
2018-08-10T17:39:19.391Z,0.53
2018-08-10T17:41:47.471Z,0.30
2018-08-10T17:44:15.661Z,0.40
2018-08-10T17:46:43.798Z,0.40
2018-08-10T17:49:11.926Z,0.40
2018-08-10T17:51:40.101Z,0.40
2018-08-10T17:54:08.303Z,0.50
2018-08-10T17:56:36.524Z,0.40
2018-08-10T17:59:05.191Z,0.50
2018-08-10T18:01:33.334Z,0.45
2018-08-10T18:04:01.593Z,0.45
2018-08-10T18:06:29.756Z,0.60
2018-08-10T18:08:57.957Z,0.50
2018-08-10T18:11:26.060Z,0.50
2018-08-10T18:13:54.173Z,0.40
2018-08-10T18:16:22.358Z,0.50
2018-08-10T18:18:50.578Z,0.50
2018-08-10T18:21:18.797Z,0.50
2018-08-10T18:23:46.934Z,0.55
2018-08-10T18:26:15.125Z,0.70
2018-08-10T18:28:43.364Z,0.55
2018-08-10T18:31:11.505Z,0.40
2018-08-10T18:33:39.735Z,0.42
2018-08-10T18:36:07.887Z,0.60
2018-08-10T18:38:36.102Z,0.70
2018-08-10T18:41:04.403Z,0.50
2018-08-10T18:43:32.527Z,0.40
2018-08-10T18:46:00.705Z,0.62
2018-08-10T18:48:28.918Z,0.75
2018-08-10T18:50:57.086Z,0.70
2018-08-10T18:53:25.270Z,0.50
2018-08-10T18:55:53.454Z,0.62
2018-08-10T18:58:21.644Z,0.62
2018-08-10T19:00:49.841Z,0.50
2018-08-10T19:03:18.013Z,0.62
2018-08-10T19:05:46.206Z,0.50
2018-08-10T19:08:14.390Z,0.50
2018-08-10T19:10:42.711Z,0.37
2018-08-10T19:13:10.905Z,0.40
2018-08-10T19:15:39.045Z,0.60
2018-08-10T19:18:07.885Z,0.40
2018-08-10T19:20:36.050Z,0.40
2018-08-10T19:23:04.315Z,0.57
2018-08-10T19:25:32.661Z,0.50
2018-08-10T19:28:00.826Z,0.60
2018-08-10T19:30:29.064Z,0.53
2018-08-10T19:32:57.189Z,0.40
2018-08-10T19:35:25.550Z,0.75
2018-08-10T19:37:53.645Z,0.40
2018-08-10T19:40:21.751Z,0.53
2018-08-10T19:42:49.921Z,0.47
2018-08-10T19:45:18.253Z,0.65
2018-08-10T19:47:46.455Z,0.40
2018-08-10T19:50:15.857Z,0.50
2018-08-10T19:52:44.006Z,0.50
2018-08-10T19:55:13.613Z,0.40
2018-08-10T19:57:41.720Z,0.45
2018-08-10T20:00:11.721Z,0.47
2018-08-10T20:02:39.814Z,0.40
2018-08-10T20:05:08.865Z,0.70
2018-08-10T20:07:37.151Z,0.40
2018-08-10T20:10:06.477Z,0.82
2018-08-10T20:12:34.850Z,0.62
2018-08-10T20:15:03.124Z,0.70
2018-08-10T20:17:31.226Z,0.82
2018-08-10T20:20:00.514Z,0.42
2018-08-10T20:22:28.725Z,0.55
2018-08-10T20:24:56.922Z,0.90
2018-08-10T20:27:25.086Z,0.70
2018-08-10T20:29:53.286Z,0.78
2018-08-10T20:32:21.478Z,0.75
2018-08-10T20:34:49.736Z,0.65
2018-08-10T20:37:17.949Z,0.60
2018-08-10T20:39:46.146Z,0.68
2018-08-10T20:42:14.334Z,0.70
2018-08-10T20:44:42.533Z,0.70
2018-08-10T20:47:10.697Z,0.80
2018-08-10T20:49:38.902Z,0.65
2018-08-10T20:52:07.279Z,0.60
2018-08-10T20:54:35.466Z,0.57
2018-08-10T20:57:03.667Z,0.57
2018-08-10T20:59:31.837Z,0.65
2018-08-10T21:02:00.022Z,0.70
2018-08-10T21:04:28.280Z,0.60
2018-08-10T21:06:56.385Z,0.65
2018-08-10T21:09:24.573Z,0.70
2018-08-10T21:11:52.764Z,0.70
2018-08-10T21:14:20.958Z,0.85
2018-08-10T21:16:49.146Z,0.70
2018-08-10T21:19:17.334Z,0.60
2018-08-10T21:21:45.431Z,0.70
2018-08-10T21:24:13.625Z,0.70
2018-08-10T21:26:41.795Z,0.90
2018-08-10T21:29:09.977Z,0.95
2018-08-10T21:31:38.153Z,0.70
2018-08-10T21:34:06.369Z,0.90
2018-08-10T21:36:34.533Z,0.62
2018-08-10T21:39:02.753Z,0.80
2018-08-10T21:41:30.905Z,0.50
2018-08-10T21:43:59.098Z,0.75
2018-08-10T21:46:27.285Z,0.72
2018-08-10T21:48:55.465Z,0.80
2018-08-10T21:51:23.658Z,0.80
2018-08-10T21:53:51.852Z,0.88
2018-08-10T21:56:20.038Z,0.72
2018-08-10T21:58:48.217Z,0.60
2018-08-10T22:01:16.408Z,0.70
2018-08-10T22:03:44.583Z,0.60
2018-08-10T22:06:12.778Z,0.60
2018-08-10T22:08:41.031Z,0.37
2018-08-10T22:11:09.223Z,0.70
2018-08-10T22:13:42.802Z,0.68
2018-08-10T22:16:16.499Z,0.65
2018-08-10T22:18:50.125Z,0.60
2018-08-10T22:21:18.259Z,0.53
2018-08-10T22:23:46.438Z,0.62
2018-08-10T22:26:14.743Z,0.50
2018-08-10T22:28:42.811Z,0.60
2018-08-10T22:31:10.902Z,0.78
2018-08-10T22:33:39.103Z,0.55
2018-08-10T22:36:07.278Z,0.60
2018-08-10T22:38:35.469Z,0.80
2018-08-10T22:41:03.654Z,0.62
2018-08-10T22:43:31.840Z,0.60
2018-08-10T22:46:00.022Z,0.60
2018-08-10T22:48:28.193Z,0.80
2018-08-10T22:50:56.310Z,0.60
2018-08-10T22:53:24.465Z,0.60
2018-08-10T22:55:52.578Z,0.72
2018-08-10T22:58:22.710Z,0.72
2018-08-10T23:00:50.889Z,0.95
2018-08-10T23:03:19.196Z,0.75
2018-08-10T23:05:47.265Z,0.60
2018-08-10T23:08:15.465Z,0.78
2018-08-10T23:10:43.662Z,0.70
2018-08-10T23:13:11.870Z,1.00
2018-08-10T23:15:40.048Z,0.80
2018-08-10T23:18:08.226Z,0.75
2018-08-10T23:20:36.414Z,0.62
2018-08-10T23:23:04.594Z,0.72
2018-08-10T23:25:32.789Z,0.70
2018-08-10T23:28:00.897Z,0.70
2018-08-10T23:30:29.066Z,0.62
2018-08-10T23:32:57.237Z,0.70
2018-08-10T23:35:26.358Z,0.80
2018-08-10T23:37:54.537Z,0.80
2018-08-10T23:40:22.722Z,0.60
2018-08-10T23:42:50.917Z,0.72
2018-08-10T23:45:19.107Z,0.80
2018-08-10T23:47:47.314Z,0.57
2018-08-10T23:50:17.344Z,0.80
2018-08-10T23:52:45.913Z,0.60
2018-08-10T23:55:15.889Z,1.05
2018-08-10T23:57:44.037Z,0.70
